Time;durP1;ratioP1;P1;durP2;ratioP2;P2;SDS_P1;SDS_P2;PMS_P1;PMS_P2;Temp;Humidity;BMP_temperature;BMP_pressure;BME280_temperature;BME280_humidity;BME280_pressure;Samples;Min_cycle;Max_cycle;Signal;HPM_P1;HPM_P2
2022/12/19 00:01:17;;;;;;;50.50;32.70;;;-4.00;99.90;;;;;;5055461;28;20213;-79
2022/12/19 00:03:45;;;;;;;38.77;26.00;;;-4.00;99.90;;;;;;5039140;28;20265;-79
2022/12/19 00:06:12;;;;;;;36.27;22.73;;;-4.00;99.90;;;;;;5038742;28;20240;-77
2022/12/19 00:08:41;;;;;;;38.10;23.57;;;-3.90;99.90;;;;;;5037001;28;20182;-77
2022/12/19 00:11:08;;;;;;;28.20;19.07;;;-3.90;99.90;;;;;;5038151;28;20198;-77
2022/12/19 00:13:36;;;;;;;28.13;18.90;;;-3.80;99.90;;;;;;5037417;28;20186;-77
2022/12/19 00:16:09;;;;;;;32.70;21.13;;;-3.70;99.90;;;;;;5038463;28;20189;-78
2022/12/19 00:18:43;;;;;;;31.50;18.57;;;-3.60;99.90;;;;;;5049468;23;20245;-84
2022/12/19 00:21:11;;;;;;;24.23;15.83;;;-3.50;99.90;;;;;;5036634;28;20193;-84
2022/12/19 00:23:40;;;;;;;23.80;16.27;;;-3.50;99.90;;;;;;5036213;28;20170;-84
2022/12/19 00:26:08;;;;;;;24.37;15.30;;;-3.50;99.90;;;;;;5036069;28;20768;-84
2022/12/19 00:28:34;;;;;;;25.77;16.23;;;-3.50;99.90;;;;;;5036348;28;20206;-84
2022/12/19 00:31:01;;;;;;;23.27;16.00;;;-3.40;99.90;;;;;;5036814;28;20179;-84
2022/12/19 00:33:27;;;;;;;26.03;15.90;;;-3.40;99.90;;;;;;5035827;28;20182;-84
2022/12/19 00:36:01;;;;;;;27.87;17.33;;;-3.40;99.90;;;;;;5036785;28;20205;-84
2022/12/19 00:38:27;;;;;;;30.50;16.60;;;-3.40;99.90;;;;;;5035964;28;20265;-84
2022/12/19 00:40:53;;;;;;;26.90;15.87;;;-3.40;99.90;;;;;;5035772;28;20661;-84
2022/12/19 00:44:04;;;;;;;26.17;15.67;;;-3.50;99.90;;;;;;5035665;28;20295;-84
2022/12/19 00:46:31;;;;;;;24.30;14.67;;;-3.50;99.90;;;;;;5036606;28;20177;-84
2022/12/19 00:48:57;;;;;;;24.50;15.70;;;-3.50;99.90;;;;;;5036075;28;20182;-84
2022/12/19 00:51:35;;;;;;;25.10;15.33;;;-3.50;99.90;;;;;;5035747;28;20272;-84
2022/12/19 00:54:03;;;;;;;23.93;15.37;;;-3.50;99.90;;;;;;5035656;28;20231;-84
2022/12/19 00:56:31;;;;;;;22.60;14.87;;;-3.50;99.90;;;;;;5035661;28;20204;-84
2022/12/19 00:59:46;;;;;;;23.03;14.27;;;-3.40;99.90;;;;;;5035945;28;20178;-84
2022/12/19 01:02:11;;;;;;;21.60;13.97;;;-3.40;99.90;;;;;;5035454;28;20198;-84
2022/12/19 01:04:38;;;;;;;21.23;13.93;;;-3.40;99.90;;;;;;5035689;28;20264;-85
2022/12/19 01:07:06;;;;;;;25.07;15.37;;;-3.30;99.90;;;;;;5035609;28;20204;-85
2022/12/19 01:09:34;;;;;;;23.43;14.40;;;-3.30;99.90;;;;;;5053566;28;20170;-84
2022/12/19 01:14:43;;;;;;;23.53;15.53;;;-3.20;99.90;;;;;;5053892;28;20216;-84
2022/12/19 01:17:09;;;;;;;20.90;14.67;;;-3.20;99.90;;;;;;5035413;28;20194;-84
2022/12/19 01:19:35;;;;;;;21.97;14.93;;;-3.20;99.90;;;;;;5035643;28;20194;-84
2022/12/19 01:22:00;;;;;;;24.67;14.90;;;-3.00;99.90;;;;;;5035266;28;20194;-84
2022/12/19 01:24:26;;;;;;;23.37;14.80;;;-3.10;99.90;;;;;;5035937;28;20197;-84
2022/12/19 01:26:52;;;;;;;25.23;14.97;;;-3.10;99.90;;;;;;5035579;28;20224;-84
2022/12/19 01:29:17;;;;;;;24.27;14.63;;;-3.10;99.90;;;;;;5035314;28;20177;-84
2022/12/19 01:31:43;;;;;;;25.57;15.17;;;-3.10;99.90;;;;;;5035349;28;20182;-84
2022/12/19 01:34:08;;;;;;;24.50;14.20;;;-3.10;99.90;;;;;;5035158;28;20178;-84
2022/12/19 01:36:34;;;;;;;22.37;14.37;;;-3.00;99.90;;;;;;5036226;28;20613;-84
2022/12/19 01:39:00;;;;;;;22.67;14.50;;;-3.00;99.90;;;;;;5035861;28;20174;-84
2022/12/19 01:41:25;;;;;;;22.70;14.67;;;-3.00;99.90;;;;;;5034992;28;20248;-84
2022/12/19 01:44:00;;;;;;;23.97;14.77;;;-3.10;99.90;;;;;;5035308;28;20178;-84
2022/12/19 01:46:43;;;;;;;28.10;17.00;;;-3.00;99.90;;;;;;5035132;28;20181;-84
2022/12/19 01:49:22;;;;;;;25.47;15.40;;;-3.00;99.90;;;;;;5053721;28;20167;-84
2022/12/19 01:51:50;;;;;;;24.80;16.20;;;-3.00;99.90;;;;;;5038931;28;20170;-84
2022/12/19 01:54:20;;;;;;;25.97;15.80;;;-3.00;99.90;;;;;;5038697;28;20202;-84
2022/12/19 01:56:49;;;;;;;26.83;15.70;;;-3.00;99.90;;;;;;5038749;28;20668;-84
2022/12/19 01:59:40;;;;;;;25.13;15.50;;;-2.90;99.90;;;;;;5038871;28;20769;-84
2022/12/19 02:02:17;;;;;;;21.40;14.50;;;-2.90;99.90;;;;;;5038658;28;20204;-84
2022/12/19 02:04:42;;;;;;;26.63;15.93;;;-3.00;99.90;;;;;;5039135;28;20722;-84
2022/12/19 02:07:08;;;;;;;25.27;15.10;;;-3.10;99.90;;;;;;5057011;28;20170;-84
2022/12/19 02:09:35;;;;;;;26.13;16.40;;;-3.00;99.90;;;;;;5038930;28;20204;-84
2022/12/19 02:12:02;;;;;;;21.83;14.93;;;-3.00;99.90;;;;;;5038826;28;20629;-84
2022/12/19 02:14:28;;;;;;;25.47;15.93;;;-3.00;99.90;;;;;;5038648;28;20205;-84
2022/12/19 02:16:57;;;;;;;26.17;16.23;;;-3.00;99.90;;;;;;5038464;28;20311;-84
2022/12/19 02:19:34;;;;;;;26.23;16.13;;;-3.00;99.90;;;;;;5038489;28;20170;-84
2022/12/19 02:22:13;;;;;;;28.47;16.53;;;-2.90;99.90;;;;;;5056179;28;20197;-84
2022/12/19 02:25:02;;;;;;;26.43;16.43;;;-2.90;99.90;;;;;;5039036;28;20586;-84
2022/12/19 02:27:55;;;;;;;24.23;15.47;;;-2.90;99.90;;;;;;5056194;28;20159;-84
2022/12/19 02:30:49;;;;;;;26.07;16.00;;;-2.80;99.90;;;;;;5038154;28;20182;-84
2022/12/19 02:33:17;;;;;;;25.63;16.00;;;-2.80;99.90;;;;;;5038511;28;20269;-84
2022/12/19 02:35:52;;;;;;;26.70;16.40;;;-2.70;99.90;;;;;;5038433;28;20248;-84
2022/12/19 02:38:33;;;;;;;27.37;16.07;;;-2.70;99.90;;;;;;5038817;28;20169;-84
2022/12/19 02:41:16;;;;;;;26.60;15.83;;;-2.60;99.90;;;;;;5038805;28;20285;-84
2022/12/19 02:43:47;;;;;;;24.07;15.87;;;-2.70;99.90;;;;;;5038624;28;20192;-84
2022/12/19 02:46:14;;;;;;;27.17;15.43;;;-2.70;99.90;;;;;;5038144;28;20255;-84
2022/12/19 02:48:40;;;;;;;25.73;16.23;;;-2.80;99.90;;;;;;5037868;28;20258;-84
2022/12/19 02:51:06;;;;;;;27.00;16.20;;;-2.70;99.90;;;;;;5037824;28;20190;-84
2022/12/19 02:53:32;;;;;;;28.00;17.70;;;-2.60;99.90;;;;;;5037783;28;20189;-84
2022/12/19 02:56:16;;;;;;;26.40;16.50;;;-2.60;99.90;;;;;;5037824;28;20620;-84
2022/12/19 02:59:31;;;;;;;28.03;16.87;;;-2.70;99.90;;;;;;5038681;28;20186;-84
2022/12/19 03:02:07;;;;;;;26.80;17.33;;;-2.60;99.90;;;;;;5055399;28;20188;-84
2022/12/19 03:05:17;;;;;;;27.07;17.27;;;-2.70;99.90;;;;;;5038328;28;20197;-84
2022/12/19 03:07:52;;;;;;;26.67;16.50;;;-2.80;99.90;;;;;;5005304;28;20211;-84
2022/12/19 03:10:32;;;;;;;27.63;16.60;;;-2.80;99.90;;;;;;5038294;28;20176;-84
2022/12/19 03:13:20;;;;;;;26.70;16.60;;;-2.80;99.90;;;;;;5037456;28;20171;-84
2022/12/19 03:15:46;;;;;;;29.10;16.63;;;-2.80;99.90;;;;;;5037284;28;20256;-84
2022/12/19 03:18:12;;;;;;;28.77;17.20;;;-2.90;99.90;;;;;;5037688;28;20198;-84
2022/12/19 03:20:43;;;;;;;26.40;17.07;;;-3.00;99.90;;;;;;5037167;28;20213;-84
2022/12/19 03:23:09;;;;;;;27.63;17.03;;;-2.90;99.90;;;;;;5037422;28;20196;-84
2022/12/19 03:25:35;;;;;;;31.43;17.90;;;-2.90;99.90;;;;;;5055158;28;20189;-84
2022/12/19 03:28:06;;;;;;;25.80;17.00;;;-2.90;99.90;;;;;;5037357;28;20178;-84
2022/12/19 03:30:33;;;;;;;29.20;17.70;;;-2.80;99.90;;;;;;5038081;28;20166;-84
2022/12/19 03:33:00;;;;;;;27.47;17.33;;;-2.70;99.90;;;;;;5036931;28;20265;-84
2022/12/19 03:35:30;;;;;;;30.30;16.57;;;-2.70;99.90;;;;;;5037100;28;20197;-84
2022/12/19 03:37:57;;;;;;;25.97;17.00;;;-2.70;99.90;;;;;;5036895;28;20652;-84
2022/12/19 03:40:24;;;;;;;29.40;18.07;;;-2.80;99.90;;;;;;5036831;28;20177;-84
2022/12/19 03:43:08;;;;;;;28.30;17.23;;;-2.80;99.90;;;;;;5037031;28;20181;-84
2022/12/19 03:45:48;;;;;;;29.80;17.87;;;-2.90;99.90;;;;;;5037512;28;20201;-84
2022/12/19 03:48:30;;;;;;;27.93;17.50;;;-2.80;99.90;;;;;;5037277;28;20177;-84
2022/12/19 03:51:18;;;;;;;29.97;17.47;;;-2.80;99.90;;;;;;5037004;28;20633;-84
2022/12/19 03:54:25;;;;;;;27.07;17.70;;;-2.70;99.90;;;;;;5054805;28;20178;-84
2022/12/19 03:57:10;;;;;;;28.80;17.77;;;-2.70;99.90;;;;;;5028331;28;20186;-84
2022/12/19 03:59:57;;;;;;;31.20;19.03;;;-2.70;99.90;;;;;;5036477;28;20256;-84
2022/12/19 04:02:23;;;;;;;28.07;17.53;;;-2.60;99.90;;;;;;5054528;28;20232;-84
2022/12/19 04:05:04;;;;;;;30.10;17.60;;;-2.60;99.90;;;;;;5037245;28;20205;-84
2022/12/19 04:07:30;;;;;;;27.83;18.47;;;-2.60;99.90;;;;;;5036940;28;20170;-84
2022/12/19 04:09:57;;;;;;;27.63;17.70;;;-2.60;99.90;;;;;;5036786;28;20278;-84
2022/12/19 04:12:35;;;;;;;28.93;18.50;;;-2.60;99.90;;;;;;5035898;28;20182;-84
2022/12/19 04:15:01;;;;;;;30.30;17.60;;;-2.60;99.90;;;;;;5036212;28;20209;-84
2022/12/19 04:17:38;;;;;;;32.07;19.33;;;-2.50;99.90;;;;;;5054180;28;20202;-84
2022/12/19 04:20:04;;;;;;;27.73;17.63;;;-2.60;99.90;;;;;;5037225;28;20189;-84
2022/12/19 04:22:42;;;;;;;31.53;19.40;;;-2.50;99.90;;;;;;5053907;28;20198;-84
2022/12/19 04:25:15;;;;;;;31.00;18.87;;;-2.60;99.90;;;;;;5035985;28;20198;-84
2022/12/19 04:27:49;;;;;;;35.60;19.40;;;-2.50;99.90;;;;;;5036016;28;20182;-84
2022/12/19 04:30:17;;;;;;;30.97;18.57;;;-2.60;99.90;;;;;;5054017;28;20166;-84
2022/12/19 04:32:43;;;;;;;27.23;18.17;;;-2.60;99.90;;;;;;5053694;28;20552;-84
2022/12/19 04:35:09;;;;;;;29.07;18.70;;;-2.60;99.90;;;;;;5036214;28;20202;-84
2022/12/19 04:37:35;;;;;;;29.60;19.17;;;-2.60;99.90;;;;;;5036205;28;20205;-84
2022/12/19 04:40:01;;;;;;;31.43;18.97;;;-2.70;99.90;;;;;;5035766;28;20186;-84
2022/12/19 04:42:27;;;;;;;31.53;19.83;;;-2.70;99.90;;;;;;5035846;28;20205;-84
2022/12/19 04:44:52;;;;;;;32.77;19.73;;;-2.70;99.90;;;;;;5035690;28;20212;-84
2022/12/19 04:47:18;;;;;;;33.47;19.63;;;-2.80;99.90;;;;;;5036622;28;20273;-84
2022/12/19 04:49:43;;;;;;;33.43;20.37;;;-2.80;99.90;;;;;;5036116;28;20177;-84
2022/12/19 04:52:09;;;;;;;30.67;18.67;;;-2.80;99.90;;;;;;5053442;28;20186;-84
2022/12/19 04:54:35;;;;;;;33.27;20.83;;;-2.70;99.90;;;;;;5035625;28;20292;-84
2022/12/19 04:57:00;;;;;;;32.83;20.20;;;-2.80;99.90;;;;;;5035743;28;20189;-84
2022/12/19 04:59:26;;;;;;;29.67;20.17;;;-2.80;99.90;;;;;;5036300;28;20190;-84
2022/12/19 05:01:51;;;;;;;33.10;20.00;;;-2.70;99.90;;;;;;5035462;28;20241;-84
2022/12/19 05:04:17;;;;;;;34.03;20.63;;;-2.70;99.90;;;;;;5035696;28;20204;-84
2022/12/19 05:06:43;;;;;;;32.30;20.80;;;-2.70;99.90;;;;;;5035547;28;20225;-84
2022/12/19 05:09:09;;;;;;;31.70;19.87;;;-2.60;99.90;;;;;;5035544;28;20214;-84
2022/12/19 05:11:35;;;;;;;31.63;20.50;;;-2.60;99.90;;;;;;5035538;28;20186;-84
2022/12/19 05:14:01;;;;;;;32.07;19.27;;;-2.60;99.90;;;;;;5035429;28;20260;-84
2022/12/19 05:16:26;;;;;;;34.20;20.70;;;-2.60;99.90;;;;;;5035288;28;20178;-84
2022/12/19 05:18:53;;;;;;;33.57;20.63;;;-2.50;99.90;;;;;;5035387;28;20190;-84
2022/12/19 05:21:20;;;;;;;33.13;21.33;;;-2.60;99.90;;;;;;5035326;28;20236;-84
2022/12/19 05:23:45;;;;;;;33.07;20.30;;;-2.70;99.90;;;;;;5036998;28;20807;-84
2022/12/19 05:26:12;;;;;;;35.07;20.93;;;-2.60;99.90;;;;;;5039367;28;20198;-84
2022/12/19 05:31:59;;;;;;;31.53;19.37;;;-2.50;99.90;;;;;;5057122;28;20201;-83
2022/12/19 05:34:25;;;;;;;33.33;21.87;;;-2.50;99.90;;;;;;5039277;28;20237;-84
2022/12/19 05:36:50;;;;;;;31.43;19.93;;;-2.50;99.90;;;;;;5057226;28;20179;-84
2022/12/19 05:39:16;;;;;;;34.00;20.53;;;-2.50;99.90;;;;;;5039957;28;20198;-84
2022/12/19 05:41:41;;;;;;;32.90;21.00;;;-2.40;99.90;;;;;;5056904;28;20206;-84
2022/12/19 05:44:08;;;;;;;33.63;22.37;;;-2.40;99.90;;;;;;5039827;28;20174;-84
2022/12/19 05:46:52;;;;;;;34.47;21.97;;;-2.40;99.90;;;;;;5039501;28;20625;-84
2022/12/19 05:49:17;;;;;;;34.53;21.90;;;-2.50;99.90;;;;;;5039610;28;20257;-83
2022/12/19 05:51:46;;;;;;;33.10;21.00;;;-2.40;99.90;;;;;;5039836;28;20699;-84
2022/12/19 05:54:12;;;;;;;34.60;20.90;;;-2.50;99.90;;;;;;5043537;28;20193;-84
2022/12/19 05:56:37;;;;;;;35.87;22.60;;;-2.50;99.90;;;;;;5041986;28;20179;-85
2022/12/19 05:59:03;;;;;;;35.73;21.57;;;-2.50;99.90;;;;;;5040997;28;20204;-84
2022/12/19 06:01:29;;;;;;;34.13;20.97;;;-2.40;99.90;;;;;;5041201;28;20202;-83
2022/12/19 06:03:54;;;;;;;35.93;22.27;;;-2.30;99.90;;;;;;5042568;28;20174;-84
2022/12/19 06:06:23;;;;;;;39.77;23.80;;;-2.20;99.90;;;;;;5041322;28;20224;-81
2022/12/19 06:08:57;;;;;;;35.90;22.87;;;-2.20;99.90;;;;;;5040467;28;20171;-84
2022/12/19 06:11:24;;;;;;;36.67;22.83;;;-2.20;99.90;;;;;;5057672;28;20197;-84
2022/12/19 06:13:49;;;;;;;38.03;23.07;;;-2.40;99.90;;;;;;5039312;28;20640;-84
2022/12/19 06:16:17;;;;;;;40.23;24.87;;;-2.30;99.90;;;;;;5039511;28;20209;-84
2022/12/19 06:18:44;;;;;;;39.27;23.67;;;-2.40;99.90;;;;;;5039075;28;20185;-84
2022/12/19 06:21:15;;;;;;;37.97;23.50;;;-2.30;99.90;;;;;;5039337;28;20194;-79
2022/12/19 06:23:42;;;;;;;40.27;25.10;;;-2.20;99.90;;;;;;5040366;28;20257;-85
2022/12/19 06:26:11;;;;;;;36.97;24.33;;;-2.30;99.90;;;;;;5039800;28;20194;-85
2022/12/19 06:28:36;;;;;;;41.33;25.20;;;-2.30;99.90;;;;;;5039789;28;20182;-83
2022/12/19 06:31:04;;;;;;;37.27;22.83;;;-2.30;99.90;;;;;;5040099;28;20232;-84
2022/12/19 06:33:31;;;;;;;41.23;24.60;;;-2.30;99.90;;;;;;5039147;28;20174;-83
2022/12/19 06:36:01;;;;;;;35.67;22.83;;;-2.30;99.90;;;;;;5038352;28;20206;-84
2022/12/19 06:38:28;;;;;;;38.67;23.53;;;-2.40;99.90;;;;;;5039232;28;20202;-84
2022/12/19 06:43:38;;;;;;;37.97;24.43;;;-2.40;99.90;;;;;;5057315;28;20188;-84
2022/12/19 06:46:29;;;;;;;43.57;25.37;;;-2.40;99.90;;;;;;5038917;28;20194;-84
2022/12/19 06:49:11;;;;;;;37.73;22.83;;;-2.30;99.90;;;;;;5038901;28;20167;-84
2022/12/19 06:51:47;;;;;;;36.87;22.47;;;-2.30;99.90;;;;;;5039500;28;20201;-84
2022/12/19 06:54:13;;;;;;;39.43;23.67;;;-2.20;99.90;;;;;;5039421;28;20170;-84
2022/12/19 06:56:41;;;;;;;42.53;25.00;;;-2.30;99.90;;;;;;5056769;28;20184;-84
2022/12/19 06:59:11;;;;;;;36.60;22.93;;;-2.30;99.90;;;;;;5039875;28;20181;-83
2022/12/19 07:02:26;;;;;;;40.43;24.53;;;-2.20;99.90;;;;;;5038430;28;20300;-83
2022/12/19 07:05:00;;;;;;;38.90;24.17;;;-2.20;99.90;;;;;;5038390;28;20194;-84
2022/12/19 07:07:27;;;;;;;40.43;24.97;;;-2.10;99.90;;;;;;5039505;28;20225;-84
2022/12/19 07:10:15;;;;;;;39.73;24.00;;;-2.20;99.90;;;;;;5038938;28;20265;-84
2022/12/19 07:12:41;;;;;;;37.17;24.27;;;-2.10;99.90;;;;;;5038841;28;20170;-84
2022/12/19 07:15:07;;;;;;;37.57;23.63;;;-2.20;99.90;;;;;;5038450;28;20567;-84
2022/12/19 07:17:36;;;;;;;41.40;24.93;;;-2.20;99.90;;;;;;5056113;28;20228;-84
2022/12/19 07:20:02;;;;;;;41.53;25.43;;;-2.10;99.90;;;;;;5038576;28;20304;-84
2022/12/19 07:22:32;;;;;;;53.00;28.30;;;-2.10;99.90;;;;;;5038240;28;20610;-84
2022/12/19 07:24:58;;;;;;;61.63;31.03;;;-2.10;99.90;;;;;;5038909;28;20194;-84
2022/12/19 07:27:24;;;;;;;52.67;29.53;;;-2.10;99.90;;;;;;5038872;28;20178;-84
2022/12/19 07:29:49;;;;;;;45.97;26.40;;;-2.30;99.90;;;;;;5056830;28;20177;-84
2022/12/19 07:32:15;;;;;;;42.20;26.47;;;-2.30;99.90;;;;;;5038895;28;20550;-84
2022/12/19 07:34:40;;;;;;;42.00;25.47;;;-2.20;99.90;;;;;;5056909;28;20213;-84
2022/12/19 07:37:06;;;;;;;43.83;26.03;;;-2.20;99.90;;;;;;5038567;28;20217;-84
2022/12/19 07:39:32;;;;;;;47.87;27.17;;;-2.20;99.90;;;;;;5026688;28;20208;-84
2022/12/19 07:42:25;;;;;;;41.50;25.50;;;-2.30;99.90;;;;;;5018976;28;20199;-84
2022/12/19 07:44:51;;;;;;;46.97;25.50;;;-2.10;99.90;;;;;;5055335;28;20194;-84
2022/12/19 07:47:16;;;;;;;44.07;26.33;;;-2.00;99.90;;;;;;5055586;28;20181;-84
2022/12/19 07:49:42;;;;;;;43.43;26.63;;;-2.10;99.90;;;;;;5024207;28;20202;-84
2022/12/19 07:52:08;;;;;;;46.07;26.37;;;-2.00;99.90;;;;;;5017089;28;20183;-83
2022/12/19 07:54:34;;;;;;;43.20;26.60;;;-1.90;99.90;;;;;;5016933;28;20207;-83
2022/12/19 07:57:00;;;;;;;45.17;27.90;;;-1.90;99.90;;;;;;5017027;28;20178;-84
2022/12/19 07:59:26;;;;;;;45.20;27.43;;;-1.90;99.90;;;;;;5017110;28;20191;-84
2022/12/19 08:01:51;;;;;;;48.33;28.43;;;-2.10;99.90;;;;;;5016675;28;20595;-84
2022/12/19 08:04:17;;;;;;;49.63;29.17;;;-2.00;99.90;;;;;;5024102;28;20198;-84
2022/12/19 08:06:43;;;;;;;44.83;28.43;;;-1.90;99.90;;;;;;5036718;28;20235;-84
2022/12/19 08:09:09;;;;;;;51.70;29.17;;;-1.70;99.90;;;;;;5037069;28;20178;-84
2022/12/19 08:11:34;;;;;;;46.60;28.07;;;-1.60;99.90;;;;;;5054258;28;20181;-84
2022/12/19 08:14:00;;;;;;;49.00;29.47;;;-1.60;99.90;;;;;;5036425;28;20265;-85
2022/12/19 08:20:02;;;;;;;47.00;27.93;;;-1.70;99.90;;;;;;5043916;28;20696;-85
2022/12/19 08:22:30;;;;;;;47.53;28.33;;;-1.60;99.90;;;;;;5016191;28;20190;-81
2022/12/19 08:24:56;;;;;;;43.80;27.57;;;-1.50;99.90;;;;;;5034475;28;20222;-86
2022/12/19 08:28:09;;;;;;;46.00;28.87;;;-1.40;99.90;;;;;;5038984;28;20171;-86
2022/12/19 08:30:38;;;;;;;45.93;28.20;;;-1.40;99.90;;;;;;5016622;28;20175;-86
2022/12/19 08:33:11;;;;;;;50.40;30.30;;;-1.50;99.90;;;;;;5016126;28;20175;-86
2022/12/19 08:35:37;;;;;;;46.83;28.03;;;-1.40;99.90;;;;;;5016066;28;20199;-86
2022/12/19 08:38:02;;;;;;;47.80;28.97;;;-1.30;99.90;;;;;;5033705;28;20171;-87
2022/12/19 08:41:02;;;;;;;46.63;29.90;;;-1.30;99.90;;;;;;5030247;28;20223;-87
2022/12/19 08:43:30;;;;;;;47.07;27.90;;;-1.30;99.90;;;;;;5035293;28;20178;-86
2022/12/19 08:45:59;;;;;;;43.83;28.57;;;-1.20;99.90;;;;;;5018270;28;20233;-86
2022/12/19 08:48:26;;;;;;;45.40;29.93;;;-1.20;99.90;;;;;;5015959;28;20171;-86
2022/12/19 08:50:53;;;;;;;49.43;29.37;;;-1.30;99.90;;;;;;5033084;28;20269;-87
2022/12/19 08:53:45;;;;;;;46.30;28.67;;;-1.20;99.90;;;;;;5036454;28;20183;-87
2022/12/19 08:59:22;;;;;;;47.23;28.70;;;-1.00;99.90;;;;;;5033559;28;20175;-85
2022/12/19 09:02:52;;;;;;;50.20;30.97;;;-1.00;99.90;;;;;;5015650;28;20245;-87
2022/12/19 09:05:18;;;;;;;48.93;30.37;;;-1.20;99.90;;;;;;5015665;28;20233;-87
2022/12/19 09:07:43;;;;;;;47.33;28.63;;;-1.20;99.90;;;;;;5015780;28;20206;-86
2022/12/19 09:10:09;;;;;;;47.00;29.43;;;-1.40;99.90;;;;;;5035298;28;20225;-86
2022/12/19 09:13:02;;;;;;;45.53;28.83;;;-1.30;99.90;;;;;;5035869;28;20178;-86
2022/12/19 09:15:27;;;;;;;48.93;30.90;;;-1.30;99.90;;;;;;5035220;28;20232;-87
2022/12/19 09:17:53;;;;;;;46.43;28.20;;;-1.20;99.90;;;;;;5035467;28;20187;-86
2022/12/19 09:20:18;;;;;;;44.70;27.93;;;-1.30;99.90;;;;;;5035035;28;20263;-87
2022/12/19 09:22:44;;;;;;;54.00;30.73;;;-1.20;99.90;;;;;;5035277;28;20296;-87
2022/12/19 09:25:35;;;;;;;45.70;29.50;;;-1.30;99.90;;;;;;5026814;28;20257;-87
2022/12/19 09:28:01;;;;;;;49.27;29.63;;;-1.30;99.90;;;;;;5015550;28;20183;-87
2022/12/19 09:30:27;;;;;;;48.70;30.87;;;-1.30;99.90;;;;;;5025764;28;20182;-87
2022/12/19 09:32:53;;;;;;;47.57;29.00;;;-1.30;99.90;;;;;;5028074;28;20228;-87
2022/12/19 09:35:18;;;;;;;48.77;29.37;;;-1.30;99.90;;;;;;5025811;28;20207;-87
2022/12/19 09:37:44;;;;;;;47.17;29.37;;;-1.30;99.90;;;;;;5015797;28;20182;-87
2022/12/19 09:40:50;;;;;;;48.07;28.50;;;-1.30;99.90;;;;;;5015796;28;20194;-84
2022/12/19 09:43:43;;;;;;;47.47;29.30;;;-1.30;99.90;;;;;;5033080;28;20171;-87
2022/12/19 09:46:16;;;;;;;49.30;28.77;;;-1.30;99.90;;;;;;5030238;28;20195;-87
2022/12/19 09:48:43;;;;;;;49.80;29.20;;;-1.20;99.90;;;;;;5053307;28;20253;-87
2022/12/19 09:51:15;;;;;;;48.63;28.70;;;-1.20;99.90;;;;;;5035298;28;20178;-87
2022/12/19 09:57:45;;;;;;;47.37;28.80;;;-1.10;99.90;;;;;;5052862;28;20158;-87
2022/12/19 10:04:23;;;;;;;45.13;28.57;;;-1.00;99.90;;;;;;5052813;28;20292;-87
2022/12/19 10:06:50;;;;;;;45.47;28.50;;;-1.10;99.90;;;;;;4952528;29;20185;-87
2022/12/19 10:09:20;;;;;;;47.63;30.10;;;-1.00;99.90;;;;;;4999733;28;20190;-86
2022/12/19 10:12:07;;;;;;;46.53;28.83;;;-1.00;99.90;;;;;;5038306;28;20213;-86
2022/12/19 10:14:52;;;;;;;47.57;28.67;;;-0.90;99.90;;;;;;5038383;28;20226;-86
2022/12/19 10:17:50;;;;;;;48.87;28.80;;;-0.90;99.90;;;;;;5039305;28;20178;-86
2022/12/19 10:20:31;;;;;;;48.67;30.03;;;-0.90;99.90;;;;;;5038423;28;20224;-87
2022/12/19 10:23:31;;;;;;;48.37;30.00;;;-0.90;99.90;;;;;;5038884;28;20201;-87
2022/12/19 10:26:02;;;;;;;49.00;28.40;;;-0.90;99.90;;;;;;5037674;28;20202;-87
2022/12/19 10:31:55;;;;;;;44.73;29.07;;;-0.60;99.90;;;;;;5055495;28;20178;-86
2022/12/19 10:34:27;;;;;;;46.03;28.87;;;-0.60;99.90;;;;;;5038020;28;20194;-86
2022/12/19 10:37:01;;;;;;;46.23;29.50;;;-0.70;99.90;;;;;;5055702;28;20173;-86
2022/12/19 10:39:30;;;;;;;49.97;30.90;;;-0.70;99.90;;;;;;5038632;28;20275;-86
2022/12/19 10:42:06;;;;;;;43.70;27.80;;;-0.70;99.90;;;;;;5037757;28;20198;-86
2022/12/19 10:44:35;;;;;;;41.77;26.97;;;-0.70;99.90;;;;;;5023463;28;20198;-86
2022/12/19 10:47:00;;;;;;;46.43;30.30;;;-0.70;99.90;;;;;;5034108;28;20214;-86
2022/12/19 10:49:26;;;;;;;51.20;30.53;;;-0.60;99.90;;;;;;5040792;28;20208;-86
2022/12/19 10:51:55;;;;;;;49.07;31.10;;;-0.70;99.90;;;;;;5046739;28;20211;-86
2022/12/19 10:54:42;;;;;;;46.37;29.77;;;-0.60;99.90;;;;;;5017931;28;20210;-86
2022/12/19 10:57:27;;;;;;;43.63;27.77;;;-0.60;99.90;;;;;;5018467;28;20179;-86
2022/12/19 10:59:58;;;;;;;48.90;29.97;;;-0.50;99.90;;;;;;5018036;28;20182;-86
2022/12/19 11:02:45;;;;;;;47.77;29.13;;;-0.60;99.90;;;;;;5035248;28;20209;-86
2022/12/19 11:05:25;;;;;;;44.50;27.57;;;-0.50;99.90;;;;;;5037530;28;20208;-86
2022/12/19 11:08:05;;;;;;;53.00;31.63;;;-0.50;99.90;;;;;;5017740;28;20179;-86
2022/12/19 11:10:47;;;;;;;47.60;30.23;;;-0.50;99.90;;;;;;5018234;28;20201;-86
2022/12/19 11:13:23;;;;;;;47.23;28.97;;;-0.40;99.90;;;;;;5037315;28;20212;-87
2022/12/19 11:15:51;;;;;;;46.10;29.47;;;-0.40;99.90;;;;;;5035346;28;20282;-87
2022/12/19 11:18:17;;;;;;;50.60;30.27;;;-0.40;99.90;;;;;;5017647;28;20221;-85
2022/12/19 11:20:55;;;;;;;53.23;35.77;;;-0.30;99.90;;;;;;5017294;28;20201;-87
2022/12/19 11:23:23;;;;;;;49.87;30.90;;;-0.40;99.90;;;;;;5035024;28;20205;-87
2022/12/19 11:25:56;;;;;;;49.33;31.47;;;-0.50;99.90;;;;;;5017309;28;20202;-85
2022/12/19 11:28:30;;;;;;;47.03;31.17;;;-0.40;99.90;;;;;;5034965;28;20170;-86
2022/12/19 11:31:01;;;;;;;45.47;29.40;;;-0.30;99.90;;;;;;5017276;28;20216;-86
2022/12/19 11:33:26;;;;;;;54.17;38.40;;;-0.20;99.90;;;;;;5017434;28;20174;-86
2022/12/19 11:35:55;;;;;;;50.47;34.27;;;-0.40;99.90;;;;;;5017517;28;20194;-86
2022/12/19 11:38:34;;;;;;;48.23;30.07;;;-0.30;99.90;;;;;;5017443;28;20218;-87
2022/12/19 11:41:13;;;;;;;41.77;27.20;;;-0.20;99.90;;;;;;5017031;28;20284;-87
2022/12/19 11:44:02;;;;;;;47.43;30.63;;;-0.20;99.90;;;;;;5017845;28;20167;-87
2022/12/19 11:46:39;;;;;;;45.13;28.37;;;-0.30;99.90;;;;;;5021221;28;20170;-87
2022/12/19 11:49:15;;;;;;;50.13;33.00;;;-0.20;99.90;;;;;;5054721;28;20192;-87
2022/12/19 11:59:17;;;;;;;46.17;29.03;;;-0.20;99.90;;;;;;5034437;28;20178;-87
2022/12/19 12:01:53;;;;;;;45.03;29.23;;;-0.20;99.90;;;;;;5021200;28;20293;-88
2022/12/19 12:07:41;;;;;;;57.13;34.93;;;-0.20;99.90;;;;;;5042113;28;20170;-87
2022/12/19 12:10:49;;;;;;;95.97;55.80;;;-0.10;99.90;;;;;;5016520;28;20183;-87
2022/12/19 12:13:34;;;;;;;64.20;41.73;;;-0.10;99.90;;;;;;5032395;28;20174;-87
2022/12/19 12:16:12;;;;;;;48.63;32.17;;;-0.20;99.90;;;;;;5036121;28;20232;-87
2022/12/19 12:22:27;;;;;;;160.57;117.80;;;-0.20;99.90;;;;;;5034581;28;20679;-87
2022/12/19 12:25:00;;;;;;;166.50;111.67;;;-0.20;99.90;;;;;;5016215;28;20673;-87
2022/12/19 12:28:04;;;;;;;86.50;59.90;;;-0.10;99.90;;;;;;5016404;28;20668;-87
2022/12/19 12:30:39;;;;;;;51.47;32.90;;;-0.10;99.90;;;;;;5015436;28;20187;-87
2022/12/19 12:33:33;;;;;;;45.97;31.10;;;0.00;99.90;;;;;;5015750;28;20175;-87
2022/12/19 12:36:06;;;;;;;70.13;48.10;;;0.00;99.90;;;;;;5002314;28;20210;-87
2022/12/19 12:42:06;;;;;;;47.60;31.00;;;0.00;99.90;;;;;;5033775;28;20218;-87
2022/12/19 12:44:40;;;;;;;68.37;49.03;;;0.10;99.90;;;;;;5015875;28;20206;-88
2022/12/19 12:47:24;;;;;;;57.17;35.20;;;0.00;99.90;;;;;;5035962;28;20175;-88
2022/12/19 12:50:27;;;;;;;57.37;36.87;;;0.10;99.90;;;;;;5053569;28;20165;-88
2022/12/19 12:53:05;;;;;;;48.20;31.80;;;0.10;99.90;;;;;;5052898;28;20271;-87
2022/12/19 12:55:32;;;;;;;55.00;34.10;;;0.10;99.90;;;;;;5035578;28;20308;-87
2022/12/19 12:57:58;;;;;;;49.67;32.27;;;0.00;99.90;;;;;;5027055;28;20213;-88
2022/12/19 13:00:31;;;;;;;54.23;33.90;;;0.00;99.90;;;;;;5016066;28;20179;-88
2022/12/19 13:03:12;;;;;;;48.13;30.97;;;0.00;99.90;;;;;;5023352;28;20201;-88
2022/12/19 13:06:16;;;;;;;52.93;33.10;;;0.00;99.90;;;;;;5053354;28;20198;-88
2022/12/19 13:08:47;;;;;;;51.30;30.73;;;0.10;99.90;;;;;;5017251;28;20190;-88
2022/12/19 13:13:59;;;;;;;47.47;29.97;;;0.00;99.90;;;;;;5033727;28;20193;-88
2022/12/19 13:16:42;;;;;;;50.77;31.60;;;0.10;99.90;;;;;;5015999;28;20182;-88
2022/12/19 13:19:23;;;;;;;54.60;34.40;;;0.00;99.90;;;;;;5015622;28;20210;-85
2022/12/19 13:22:06;;;;;;;51.20;34.33;;;0.00;99.90;;;;;;5015438;28;20284;-85
2022/12/19 13:24:51;;;;;;;59.27;36.53;;;0.00;99.90;;;;;;5015702;28;20207;-85
2022/12/19 13:27:40;;;;;;;49.63;30.77;;;0.20;99.90;;;;;;5015881;28;20604;-85
2022/12/19 13:30:19;;;;;;;45.30;29.23;;;0.30;99.90;;;;;;5015401;28;20174;-85
2022/12/19 13:32:44;;;;;;;109.90;87.10;;;0.30;99.90;;;;;;5015719;28;20221;-85
2022/12/19 13:35:31;;;;;;;49.07;32.73;;;0.20;99.90;;;;;;5033276;28;20234;-85
2022/12/19 13:38:21;;;;;;;46.70;31.63;;;0.20;99.90;;;;;;5015494;28;20178;-86
2022/12/19 13:43:44;;;;;;;52.37;35.77;;;0.30;99.90;;;;;;5016335;28;20182;-86
2022/12/19 13:43:49;;;;;;;52.90;33.27;;;0.20;99.90;;;;;;5045380;28;20170;-86
2022/12/19 13:49:37;;;;;;;71.13;49.53;;;0.10;99.90;;;;;;5044982;28;20168;-85